sensor_id;sensor_type;location;lat;lon;timestamp;P1;durP1;ratioP1;P2;durP2;ratioP2
51438;SDS011;38816;51.142;-0.974;2023-03-01T00:00:38;8.98;;;6.72;;
51438;SDS011;38816;51.142;-0.974;2023-03-01T00:03:03;10.57;;;6.28;;
51438;SDS011;38816;51.142;-0.974;2023-03-01T00:05:29;11.50;;;6.93;;
51438;SDS011;38816;51.142;-0.974;2023-03-01T00:07:54;10.27;;;6.30;;
51438;SDS011;38816;51.142;-0.974;2023-03-01T00:10:20;11.75;;;6.05;;
51438;SDS011;38816;51.142;-0.974;2023-03-01T00:12:45;9.73;;;6.75;;
51438;SDS011;38816;51.142;-0.974;2023-03-01T00:15:11;13.48;;;7.15;;
51438;SDS011;38816;51.142;-0.974;2023-03-01T00:17:36;10.73;;;6.57;;
51438;SDS011;38816;51.142;-0.974;2023-03-01T00:20:02;16.65;;;7.30;;
51438;SDS011;38816;51.142;-0.974;2023-03-01T00:22:27;12.23;;;7.18;;
51438;SDS011;38816;51.142;-0.974;2023-03-01T00:24:55;10.63;;;7.00;;
51438;SDS011;38816;51.142;-0.974;2023-03-01T00:27:21;12.20;;;7.50;;
51438;SDS011;38816;51.142;-0.974;2023-03-01T00:29:46;12.77;;;7.80;;
51438;SDS011;38816;51.142;-0.974;2023-03-01T00:32:12;12.80;;;7.43;;
51438;SDS011;38816;51.142;-0.974;2023-03-01T00:34:37;10.40;;;6.30;;
51438;SDS011;38816;51.142;-0.974;2023-03-01T00:37:02;13.18;;;6.50;;
51438;SDS011;38816;51.142;-0.974;2023-03-01T00:39:30;9.75;;;6.75;;
51438;SDS011;38816;51.142;-0.974;2023-03-01T00:41:57;8.32;;;6.10;;
51438;SDS011;38816;51.142;-0.974;2023-03-01T00:44:22;8.13;;;5.78;;
51438;SDS011;38816;51.142;-0.974;2023-03-01T00:46:48;8.10;;;6.10;;
51438;SDS011;38816;51.142;-0.974;2023-03-01T00:49:13;9.38;;;5.82;;
51438;SDS011;38816;51.142;-0.974;2023-03-01T00:51:39;11.25;;;6.70;;
51438;SDS011;38816;51.142;-0.974;2023-03-01T00:54:07;10.48;;;6.03;;
51438;SDS011;38816;51.142;-0.974;2023-03-01T00:56:33;10.48;;;6.18;;
51438;SDS011;38816;51.142;-0.974;2023-03-01T00:58:59;9.32;;;6.22;;
51438;SDS011;38816;51.142;-0.974;2023-03-01T01:01:26;12.65;;;6.75;;
51438;SDS011;38816;51.142;-0.974;2023-03-01T01:03:57;13.48;;;7.35;;
51438;SDS011;38816;51.142;-0.974;2023-03-01T01:06:25;10.63;;;6.47;;
51438;SDS011;38816;51.142;-0.974;2023-03-01T01:08:53;9.07;;;6.30;;
51438;SDS011;38816;51.142;-0.974;2023-03-01T01:11:21;11.32;;;6.55;;
51438;SDS011;38816;51.142;-0.974;2023-03-01T01:13:48;10.25;;;6.15;;
51438;SDS011;38816;51.142;-0.974;2023-03-01T01:16:14;11.82;;;6.57;;
51438;SDS011;38816;51.142;-0.974;2023-03-01T01:18:40;10.40;;;6.13;;
51438;SDS011;38816;51.142;-0.974;2023-03-01T01:21:07;14.02;;;7.53;;
51438;SDS011;38816;51.142;-0.974;2023-03-01T01:23:35;9.73;;;6.35;;
51438;SDS011;38816;51.142;-0.974;2023-03-01T01:26:05;10.30;;;6.90;;
51438;SDS011;38816;51.142;-0.974;2023-03-01T01:28:54;12.27;;;6.95;;
51438;SDS011;38816;51.142;-0.974;2023-03-01T01:31:20;13.23;;;7.20;;
51438;SDS011;38816;51.142;-0.974;2023-03-01T01:33:48;12.23;;;7.28;;
51438;SDS011;38816;51.142;-0.974;2023-03-01T01:36:14;12.32;;;7.40;;
51438;SDS011;38816;51.142;-0.974;2023-03-01T01:38:39;12.45;;;7.90;;
51438;SDS011;38816;51.142;-0.974;2023-03-01T01:41:07;9.20;;;7.22;;
51438;SDS011;38816;51.142;-0.974;2023-03-01T01:46:00;11.32;;;7.70;;
51438;SDS011;38816;51.142;-0.974;2023-03-01T01:48:28;11.63;;;7.50;;
51438;SDS011;38816;51.142;-0.974;2023-03-01T01:51:05;10.50;;;7.80;;
51438;SDS011;38816;51.142;-0.974;2023-03-01T01:53:34;13.55;;;8.18;;
51438;SDS011;38816;51.142;-0.974;2023-03-01T01:56:01;12.15;;;7.65;;
51438;SDS011;38816;51.142;-0.974;2023-03-01T01:58:27;11.68;;;8.15;;
51438;SDS011;38816;51.142;-0.974;2023-03-01T02:00:55;13.32;;;7.85;;
51438;SDS011;38816;51.142;-0.974;2023-03-01T02:03:28;13.25;;;8.15;;
51438;SDS011;38816;51.142;-0.974;2023-03-01T02:06:06;12.27;;;8.25;;
51438;SDS011;38816;51.142;-0.974;2023-03-01T02:08:33;10.52;;;7.70;;
51438;SDS011;38816;51.142;-0.974;2023-03-01T02:11:02;13.65;;;8.02;;
51438;SDS011;38816;51.142;-0.974;2023-03-01T02:13:29;15.57;;;8.48;;
51438;SDS011;38816;51.142;-0.974;2023-03-01T02:15:56;12.20;;;8.43;;
51438;SDS011;38816;51.142;-0.974;2023-03-01T02:18:22;11.57;;;8.27;;
51438;SDS011;38816;51.142;-0.974;2023-03-01T02:23:21;16.30;;;9.13;;
51438;SDS011;38816;51.142;-0.974;2023-03-01T02:25:52;12.05;;;8.70;;
51438;SDS011;38816;51.142;-0.974;2023-03-01T02:28:28;13.68;;;8.10;;
51438;SDS011;38816;51.142;-0.974;2023-03-01T02:30:55;12.38;;;8.38;;
51438;SDS011;38816;51.142;-0.974;2023-03-01T02:33:39;14.48;;;8.50;;
51438;SDS011;38816;51.142;-0.974;2023-03-01T02:36:11;12.27;;;8.30;;
51438;SDS011;38816;51.142;-0.974;2023-03-01T02:38:41;14.77;;;8.45;;
51438;SDS011;38816;51.142;-0.974;2023-03-01T02:41:07;12.02;;;8.52;;
51438;SDS011;38816;51.142;-0.974;2023-03-01T02:43:33;14.05;;;8.85;;
51438;SDS011;38816;51.142;-0.974;2023-03-01T02:46:04;14.05;;;9.07;;
51438;SDS011;38816;51.142;-0.974;2023-03-01T02:48:48;13.05;;;8.88;;
51438;SDS011;38816;51.142;-0.974;2023-03-01T02:54:07;14.02;;;8.68;;
51438;SDS011;38816;51.142;-0.974;2023-03-01T02:56:59;12.82;;;8.70;;
51438;SDS011;38816;51.142;-0.974;2023-03-01T02:59:26;17.30;;;8.80;;
51438;SDS011;38816;51.142;-0.974;2023-03-01T03:01:56;13.38;;;7.90;;
51438;SDS011;38816;51.142;-0.974;2023-03-01T03:04:21;14.77;;;9.00;;
51438;SDS011;38816;51.142;-0.974;2023-03-01T03:06:48;15.45;;;9.50;;
51438;SDS011;38816;51.142;-0.974;2023-03-01T03:09:15;16.63;;;9.48;;
51438;SDS011;38816;51.142;-0.974;2023-03-01T03:11:41;15.70;;;10.15;;
51438;SDS011;38816;51.142;-0.974;2023-03-01T03:14:08;14.85;;;9.55;;
51438;SDS011;38816;51.142;-0.974;2023-03-01T03:16:41;14.20;;;10.25;;
51438;SDS011;38816;51.142;-0.974;2023-03-01T03:19:08;14.65;;;10.10;;
51438;SDS011;38816;51.142;-0.974;2023-03-01T03:21:33;14.50;;;10.32;;
51438;SDS011;38816;51.142;-0.974;2023-03-01T03:23:59;15.35;;;9.80;;
51438;SDS011;38816;51.142;-0.974;2023-03-01T03:26:25;17.85;;;10.80;;
51438;SDS011;38816;51.142;-0.974;2023-03-01T03:28:50;16.10;;;10.88;;
51438;SDS011;38816;51.142;-0.974;2023-03-01T03:31:16;19.85;;;10.98;;
51438;SDS011;38816;51.142;-0.974;2023-03-01T03:33:41;17.30;;;10.98;;
51438;SDS011;38816;51.142;-0.974;2023-03-01T03:36:07;17.92;;;10.85;;
51438;SDS011;38816;51.142;-0.974;2023-03-01T03:38:37;25.13;;;12.25;;
51438;SDS011;38816;51.142;-0.974;2023-03-01T03:41:06;20.13;;;12.30;;
51438;SDS011;38816;51.142;-0.974;2023-03-01T03:43:33;18.60;;;12.57;;
51438;SDS011;38816;51.142;-0.974;2023-03-01T03:46:00;18.02;;;12.43;;
51438;SDS011;38816;51.142;-0.974;2023-03-01T03:48:30;17.38;;;11.52;;
51438;SDS011;38816;51.142;-0.974;2023-03-01T03:50:57;19.55;;;11.45;;
51438;SDS011;38816;51.142;-0.974;2023-03-01T03:53:23;19.40;;;12.23;;
51438;SDS011;38816;51.142;-0.974;2023-03-01T03:55:51;24.15;;;12.05;;
51438;SDS011;38816;51.142;-0.974;2023-03-01T03:58:17;17.40;;;11.60;;
51438;SDS011;38816;51.142;-0.974;2023-03-01T04:00:44;17.17;;;11.45;;
51438;SDS011;38816;51.142;-0.974;2023-03-01T04:03:12;22.75;;;11.88;;
51438;SDS011;38816;51.142;-0.974;2023-03-01T04:05:39;18.50;;;11.75;;
51438;SDS011;38816;51.142;-0.974;2023-03-01T04:08:06;17.08;;;11.05;;
51438;SDS011;38816;51.142;-0.974;2023-03-01T04:10:42;20.75;;;11.48;;
51438;SDS011;38816;51.142;-0.974;2023-03-01T04:13:19;17.10;;;9.73;;
51438;SDS011;38816;51.142;-0.974;2023-03-01T04:15:49;15.52;;;10.07;;
51438;SDS011;38816;51.142;-0.974;2023-03-01T04:18:16;12.85;;;8.80;;
51438;SDS011;38816;51.142;-0.974;2023-03-01T04:20:43;12.88;;;8.07;;
51438;SDS011;38816;51.142;-0.974;2023-03-01T04:23:11;13.50;;;8.57;;
51438;SDS011;38816;51.142;-0.974;2023-03-01T04:25:41;14.13;;;8.68;;
51438;SDS011;38816;51.142;-0.974;2023-03-01T04:28:10;12.88;;;8.50;;
51438;SDS011;38816;51.142;-0.974;2023-03-01T04:30:36;15.45;;;8.77;;
51438;SDS011;38816;51.142;-0.974;2023-03-01T04:33:04;16.60;;;7.28;;
51438;SDS011;38816;51.142;-0.974;2023-03-01T04:35:30;10.63;;;6.82;;
51438;SDS011;38816;51.142;-0.974;2023-03-01T04:37:56;11.82;;;7.47;;
51438;SDS011;38816;51.142;-0.974;2023-03-01T04:40:21;11.95;;;7.18;;
51438;SDS011;38816;51.142;-0.974;2023-03-01T04:42:46;10.00;;;6.10;;
51438;SDS011;38816;51.142;-0.974;2023-03-01T04:45:12;8.95;;;5.40;;
51438;SDS011;38816;51.142;-0.974;2023-03-01T04:47:40;7.15;;;4.95;;
51438;SDS011;38816;51.142;-0.974;2023-03-01T04:50:07;6.22;;;4.28;;
51438;SDS011;38816;51.142;-0.974;2023-03-01T04:52:34;7.90;;;4.45;;
51438;SDS011;38816;51.142;-0.974;2023-03-01T04:55:00;6.32;;;4.00;;
51438;SDS011;38816;51.142;-0.974;2023-03-01T04:57:25;6.00;;;4.15;;
51438;SDS011;38816;51.142;-0.974;2023-03-01T04:59:51;6.47;;;4.07;;
51438;SDS011;38816;51.142;-0.974;2023-03-01T05:02:16;7.50;;;4.13;;
51438;SDS011;38816;51.142;-0.974;2023-03-01T05:04:41;5.78;;;3.47;;
51438;SDS011;38816;51.142;-0.974;2023-03-01T05:07:07;4.65;;;3.58;;
51438;SDS011;38816;51.142;-0.974;2023-03-01T05:09:32;5.43;;;3.95;;
51438;SDS011;38816;51.142;-0.974;2023-03-01T05:11:58;4.88;;;3.90;;
51438;SDS011;38816;51.142;-0.974;2023-03-01T05:14:23;5.90;;;3.60;;
51438;SDS011;38816;51.142;-0.974;2023-03-01T05:16:48;5.18;;;3.42;;
51438;SDS011;38816;51.142;-0.974;2023-03-01T05:19:14;6.00;;;3.42;;
51438;SDS011;38816;51.142;-0.974;2023-03-01T05:21:47;5.25;;;3.17;;
51438;SDS011;38816;51.142;-0.974;2023-03-01T05:24:29;3.50;;;2.25;;
51438;SDS011;38816;51.142;-0.974;2023-03-01T05:26:56;4.93;;;3.15;;
51438;SDS011;38816;51.142;-0.974;2023-03-01T05:29:22;3.08;;;2.50;;
51438;SDS011;38816;51.142;-0.974;2023-03-01T05:31:52;3.75;;;2.30;;
51438;SDS011;38816;51.142;-0.974;2023-03-01T05:34:31;3.50;;;2.30;;
51438;SDS011;38816;51.142;-0.974;2023-03-01T05:36:58;3.22;;;2.40;;
51438;SDS011;38816;51.142;-0.974;2023-03-01T05:39:25;2.58;;;2.30;;
51438;SDS011;38816;51.142;-0.974;2023-03-01T05:41:52;5.45;;;2.30;;
51438;SDS011;38816;51.142;-0.974;2023-03-01T05:44:18;5.28;;;2.42;;
51438;SDS011;38816;51.142;-0.974;2023-03-01T05:46:44;3.25;;;2.25;;
51438;SDS011;38816;51.142;-0.974;2023-03-01T05:49:10;2.80;;;2.20;;
51438;SDS011;38816;51.142;-0.974;2023-03-01T05:51:38;3.33;;;2.75;;
51438;SDS011;38816;51.142;-0.974;2023-03-01T05:54:04;3.38;;;2.83;;
51438;SDS011;38816;51.142;-0.974;2023-03-01T05:56:31;3.90;;;2.50;;
51438;SDS011;38816;51.142;-0.974;2023-03-01T05:58:57;6.20;;;2.53;;
51438;SDS011;38816;51.142;-0.974;2023-03-01T06:01:23;2.75;;;2.33;;
51438;SDS011;38816;51.142;-0.974;2023-03-01T06:03:48;4.05;;;2.58;;
51438;SDS011;38816;51.142;-0.974;2023-03-01T06:06:13;6.68;;;3.20;;
51438;SDS011;38816;51.142;-0.974;2023-03-01T06:08:39;3.97;;;2.75;;
51438;SDS011;38816;51.142;-0.974;2023-03-01T06:11:04;3.90;;;2.72;;
51438;SDS011;38816;51.142;-0.974;2023-03-01T06:13:30;3.75;;;2.95;;
51438;SDS011;38816;51.142;-0.974;2023-03-01T06:15:55;3.28;;;2.90;;
51438;SDS011;38816;51.142;-0.974;2023-03-01T06:18:21;3.55;;;2.83;;
51438;SDS011;38816;51.142;-0.974;2023-03-01T06:20:52;5.47;;;2.80;;
51438;SDS011;38816;51.142;-0.974;2023-03-01T06:23:18;6.33;;;2.97;;
51438;SDS011;38816;51.142;-0.974;2023-03-01T06:25:44;4.40;;;2.90;;
51438;SDS011;38816;51.142;-0.974;2023-03-01T06:28:09;6.20;;;3.00;;
51438;SDS011;38816;51.142;-0.974;2023-03-01T06:30:34;3.58;;;2.65;;
51438;SDS011;38816;51.142;-0.974;2023-03-01T06:33:00;4.10;;;2.80;;
51438;SDS011;38816;51.142;-0.974;2023-03-01T06:35:28;5.18;;;2.92;;
51438;SDS011;38816;51.142;-0.974;2023-03-01T06:37:55;5.65;;;3.40;;
51438;SDS011;38816;51.142;-0.974;2023-03-01T06:40:21;5.57;;;3.15;;
51438;SDS011;38816;51.142;-0.974;2023-03-01T06:42:50;5.95;;;3.35;;
51438;SDS011;38816;51.142;-0.974;2023-03-01T06:45:17;4.57;;;3.45;;
51438;SDS011;38816;51.142;-0.974;2023-03-01T06:47:43;4.80;;;3.10;;
51438;SDS011;38816;51.142;-0.974;2023-03-01T06:50:09;4.13;;;3.40;;
51438;SDS011;38816;51.142;-0.974;2023-03-01T06:52:35;4.53;;;3.47;;
51438;SDS011;38816;51.142;-0.974;2023-03-01T06:55:00;5.45;;;3.50;;
51438;SDS011;38816;51.142;-0.974;2023-03-01T06:57:26;5.35;;;3.65;;
51438;SDS011;38816;51.142;-0.974;2023-03-01T06:59:52;7.22;;;3.42;;
51438;SDS011;38816;51.142;-0.974;2023-03-01T07:02:18;6.82;;;3.78;;
51438;SDS011;38816;51.142;-0.974;2023-03-01T07:04:43;8.48;;;3.80;;
51438;SDS011;38816;51.142;-0.974;2023-03-01T07:07:09;7.35;;;3.65;;
51438;SDS011;38816;51.142;-0.974;2023-03-01T07:09:34;7.93;;;3.60;;
51438;SDS011;38816;51.142;-0.974;2023-03-01T07:12:00;9.27;;;4.50;;
51438;SDS011;38816;51.142;-0.974;2023-03-01T07:14:26;9.00;;;3.72;;
51438;SDS011;38816;51.142;-0.974;2023-03-01T07:16:52;4.97;;;3.67;;
51438;SDS011;38816;51.142;-0.974;2023-03-01T07:19:17;10.27;;;4.05;;
51438;SDS011;38816;51.142;-0.974;2023-03-01T07:21:43;6.82;;;4.45;;
51438;SDS011;38816;51.142;-0.974;2023-03-01T07:24:09;7.35;;;4.75;;
51438;SDS011;38816;51.142;-0.974;2023-03-01T07:26:35;10.23;;;4.50;;
51438;SDS011;38816;51.142;-0.974;2023-03-01T07:29:01;6.00;;;4.30;;
51438;SDS011;38816;51.142;-0.974;2023-03-01T07:31:28;9.25;;;4.45;;
51438;SDS011;38816;51.142;-0.974;2023-03-01T07:33:54;8.00;;;4.30;;
51438;SDS011;38816;51.142;-0.974;2023-03-01T07:36:20;8.60;;;4.65;;
51438;SDS011;38816;51.142;-0.974;2023-03-01T07:38:45;8.65;;;5.40;;
51438;SDS011;38816;51.142;-0.974;2023-03-01T07:41:11;11.05;;;4.75;;
51438;SDS011;38816;51.142;-0.974;2023-03-01T07:43:36;8.70;;;4.30;;
51438;SDS011;38816;51.142;-0.974;2023-03-01T07:46:02;10.95;;;5.47;;
51438;SDS011;38816;51.142;-0.974;2023-03-01T07:48:29;8.95;;;5.35;;
51438;SDS011;38816;51.142;-0.974;2023-03-01T07:50:58;10.52;;;5.20;;
51438;SDS011;38816;51.142;-0.974;2023-03-01T07:53:27;10.77;;;4.30;;
51438;SDS011;38816;51.142;-0.974;2023-03-01T07:56:06;9.93;;;5.30;;
51438;SDS011;38816;51.142;-0.974;2023-03-01T07:58:34;10.98;;;4.55;;
51438;SDS011;38816;51.142;-0.974;2023-03-01T08:01:01;7.63;;;4.60;;
51438;SDS011;38816;51.142;-0.974;2023-03-01T08:03:28;7.25;;;4.53;;
51438;SDS011;38816;51.142;-0.974;2023-03-01T08:05:53;7.25;;;4.07;;
51438;SDS011;38816;51.142;-0.974;2023-03-01T08:08:19;9.10;;;4.80;;
51438;SDS011;38816;51.142;-0.974;2023-03-01T08:10:44;10.90;;;4.85;;
51438;SDS011;38816;51.142;-0.974;2023-03-01T08:13:10;8.13;;;5.05;;
51438;SDS011;38816;51.142;-0.974;2023-03-01T08:15:35;8.82;;;4.40;;
51438;SDS011;38816;51.142;-0.974;2023-03-01T08:18:00;7.70;;;4.22;;
51438;SDS011;38816;51.142;-0.974;2023-03-01T08:20:26;8.05;;;4.03;;
51438;SDS011;38816;51.142;-0.974;2023-03-01T08:22:51;9.07;;;3.67;;
51438;SDS011;38816;51.142;-0.974;2023-03-01T08:25:16;8.38;;;4.07;;
51438;SDS011;38816;51.142;-0.974;2023-03-01T08:27:42;13.70;;;4.50;;
51438;SDS011;38816;51.142;-0.974;2023-03-01T08:30:08;11.25;;;3.97;;
51438;SDS011;38816;51.142;-0.974;2023-03-01T08:32:39;6.18;;;3.75;;
51438;SDS011;38816;51.142;-0.974;2023-03-01T08:35:05;5.45;;;3.60;;
51438;SDS011;38816;51.142;-0.974;2023-03-01T08:37:30;6.65;;;3.58;;
51438;SDS011;38816;51.142;-0.974;2023-03-01T08:39:58;7.13;;;3.60;;
51438;SDS011;38816;51.142;-0.974;2023-03-01T08:42:26;5.88;;;3.95;;
51438;SDS011;38816;51.142;-0.974;2023-03-01T08:44:51;7.05;;;3.92;;
51438;SDS011;38816;51.142;-0.974;2023-03-01T08:47:17;8.95;;;3.90;;
51438;SDS011;38816;51.142;-0.974;2023-03-01T08:49:42;9.18;;;3.80;;
51438;SDS011;38816;51.142;-0.974;2023-03-01T08:52:08;5.82;;;3.50;;
51438;SDS011;38816;51.142;-0.974;2023-03-01T08:54:33;5.93;;;3.42;;
51438;SDS011;38816;51.142;-0.974;2023-03-01T08:57:00;11.00;;;3.42;;
51438;SDS011;38816;51.142;-0.974;2023-03-01T08:59:26;10.45;;;3.58;;
51438;SDS011;38816;51.142;-0.974;2023-03-01T09:01:53;8.82;;;3.55;;
51438;SDS011;38816;51.142;-0.974;2023-03-01T09:04:19;6.53;;;3.53;;
51438;SDS011;38816;51.142;-0.974;2023-03-01T09:06:44;3.80;;;2.95;;
51438;SDS011;38816;51.142;-0.974;2023-03-01T09:09:13;4.10;;;2.90;;
51438;SDS011;38816;51.142;-0.974;2023-03-01T09:11:41;3.92;;;2.55;;
51438;SDS011;38816;51.142;-0.974;2023-03-01T09:14:07;15.90;;;3.67;;
51438;SDS011;38816;51.142;-0.974;2023-03-01T09:16:33;8.23;;;3.45;;
51438;SDS011;38816;51.142;-0.974;2023-03-01T09:19:00;7.25;;;2.97;;
51438;SDS011;38816;51.142;-0.974;2023-03-01T09:21:26;7.78;;;2.60;;
51438;SDS011;38816;51.142;-0.974;2023-03-01T09:23:52;7.40;;;2.85;;
51438;SDS011;38816;51.142;-0.974;2023-03-01T09:26:21;6.30;;;2.83;;
51438;SDS011;38816;51.142;-0.974;2023-03-01T09:28:47;4.00;;;2.72;;
51438;SDS011;38816;51.142;-0.974;2023-03-01T09:31:15;5.10;;;2.53;;
51438;SDS011;38816;51.142;-0.974;2023-03-01T09:33:42;7.07;;;2.60;;
51438;SDS011;38816;51.142;-0.974;2023-03-01T09:36:17;4.13;;;2.63;;
51438;SDS011;38816;51.142;-0.974;2023-03-01T09:38:46;7.63;;;3.10;;
51438;SDS011;38816;51.142;-0.974;2023-03-01T09:43:50;5.10;;;2.58;;
51438;SDS011;38816;51.142;-0.974;2023-03-01T09:46:21;3.42;;;2.33;;
51438;SDS011;38816;51.142;-0.974;2023-03-01T09:48:49;2.90;;;2.13;;
51438;SDS011;38816;51.142;-0.974;2023-03-01T09:51:33;3.05;;;1.95;;
51438;SDS011;38816;51.142;-0.974;2023-03-01T09:54:01;3.80;;;2.33;;
51438;SDS011;38816;51.142;-0.974;2023-03-01T09:56:30;2.80;;;1.70;;
51438;SDS011;38816;51.142;-0.974;2023-03-01T09:59:13;2.83;;;1.67;;
51438;SDS011;38816;51.142;-0.974;2023-03-01T10:04:44;4.65;;;1.40;;
51438;SDS011;38816;51.142;-0.974;2023-03-01T10:09:52;2.78;;;1.20;;
51438;SDS011;38816;51.142;-0.974;2023-03-01T10:12:22;3.35;;;0.95;;
51438;SDS011;38816;51.142;-0.974;2023-03-01T10:15:00;3.78;;;1.05;;
51438;SDS011;38816;51.142;-0.974;2023-03-01T10:17:30;1.30;;;0.90;;
51438;SDS011;38816;51.142;-0.974;2023-03-01T10:20:21;3.25;;;0.80;;
51438;SDS011;38816;51.142;-0.974;2023-03-01T10:22:48;1.35;;;1.00;;
51438;SDS011;38816;51.142;-0.974;2023-03-01T10:28:16;4.13;;;1.08;;
51438;SDS011;38816;51.142;-0.974;2023-03-01T10:30:42;2.72;;;1.00;;
51438;SDS011;38816;51.142;-0.974;2023-03-01T10:33:22;5.90;;;1.20;;
51438;SDS011;38816;51.142;-0.974;2023-03-01T10:35:50;1.73;;;1.00;;
51438;SDS011;38816;51.142;-0.974;2023-03-01T10:38:16;1.65;;;1.25;;
51438;SDS011;38816;51.142;-0.974;2023-03-01T10:40:53;4.20;;;0.98;;
51438;SDS011;38816;51.142;-0.974;2023-03-01T10:43:22;3.35;;;1.30;;
51438;SDS011;38816;51.142;-0.974;2023-03-01T10:45:49;3.72;;;1.38;;
51438;SDS011;38816;51.142;-0.974;2023-03-01T10:51:04;2.70;;;0.90;;
51438;SDS011;38816;51.142;-0.974;2023-03-01T10:56:10;4.07;;;1.00;;
51438;SDS011;38816;51.142;-0.974;2023-03-01T10:58:41;1.65;;;0.90;;
51438;SDS011;38816;51.142;-0.974;2023-03-01T11:01:30;1.38;;;1.08;;
51438;SDS011;38816;51.142;-0.974;2023-03-01T11:06:36;1.77;;;0.98;;
51438;SDS011;38816;51.142;-0.974;2023-03-01T11:12:03;1.27;;;0.93;;
51438;SDS011;38816;51.142;-0.974;2023-03-01T11:14:33;3.60;;;1.10;;
51438;SDS011;38816;51.142;-0.974;2023-03-01T11:17:05;3.42;;;0.80;;
51438;SDS011;38816;51.142;-0.974;2023-03-01T11:22:42;3.17;;;0.82;;
51438;SDS011;38816;51.142;-0.974;2023-03-01T11:25:13;10.30;;;1.40;;
51438;SDS011;38816;51.142;-0.974;2023-03-01T11:27:40;13.15;;;2.03;;
51438;SDS011;38816;51.142;-0.974;2023-03-01T11:35:33;1.60;;;0.60;;
51438;SDS011;38816;51.142;-0.974;2023-03-01T11:38:16;4.13;;;1.30;;
51438;SDS011;38816;51.142;-0.974;2023-03-01T11:48:50;2.05;;;1.05;;
51438;SDS011;38816;51.142;-0.974;2023-03-01T11:51:29;2.38;;;1.20;;
51438;SDS011;38816;51.142;-0.974;2023-03-01T11:56:41;1.58;;;1.10;;
51438;SDS011;38816;51.142;-0.974;2023-03-01T12:13:02;1.88;;;1.33;;
51438;SDS011;38816;51.142;-0.974;2023-03-01T12:18:17;8.50;;;1.42;;
51438;SDS011;38816;51.142;-0.974;2023-03-01T12:26:01;2.00;;;1.20;;
51438;SDS011;38816;51.142;-0.974;2023-03-01T12:28:38;4.15;;;1.30;;
51438;SDS011;38816;51.142;-0.974;2023-03-01T12:31:29;1.77;;;1.00;;
51438;SDS011;38816;51.142;-0.974;2023-03-01T12:50:57;2.90;;;1.27;;
51438;SDS011;38816;51.142;-0.974;2023-03-01T12:53:34;4.65;;;1.42;;
51438;SDS011;38816;51.142;-0.974;2023-03-01T12:56:02;2.00;;;1.13;;
51438;SDS011;38816;51.142;-0.974;2023-03-01T13:17:49;1.77;;;0.75;;
51438;SDS011;38816;51.142;-0.974;2023-03-01T13:20:19;1.48;;;0.90;;
51438;SDS011;38816;51.142;-0.974;2023-03-01T13:22:46;2.35;;;1.00;;
51438;SDS011;38816;51.142;-0.974;2023-03-01T13:25:19;4.82;;;1.33;;
51438;SDS011;38816;51.142;-0.974;2023-03-01T13:27:45;3.17;;;1.30;;
51438;SDS011;38816;51.142;-0.974;2023-03-01T13:33:42;1.88;;;1.20;;
51438;SDS011;38816;51.142;-0.974;2023-03-01T13:36:02;3.25;;;1.90;;
51438;SDS011;38816;51.142;-0.974;2023-03-01T13:41:13;1.40;;;0.98;;
51438;SDS011;38816;51.142;-0.974;2023-03-01T13:43:40;2.47;;;1.27;;
51438;SDS011;38816;51.142;-0.974;2023-03-01T13:46:12;3.83;;;1.17;;
51438;SDS011;38816;51.142;-0.974;2023-03-01T13:48:43;2.08;;;1.23;;
51438;SDS011;38816;51.142;-0.974;2023-03-01T13:51:12;1.83;;;1.30;;
51438;SDS011;38816;51.142;-0.974;2023-03-01T13:53:45;1.73;;;1.20;;
51438;SDS011;38816;51.142;-0.974;2023-03-01T13:56:17;2.85;;;1.38;;
51438;SDS011;38816;51.142;-0.974;2023-03-01T13:58:48;3.00;;;1.48;;
51438;SDS011;38816;51.142;-0.974;2023-03-01T14:01:21;2.25;;;1.30;;
51438;SDS011;38816;51.142;-0.974;2023-03-01T14:03:57;3.25;;;1.88;;
51438;SDS011;38816;51.142;-0.974;2023-03-01T14:06:27;6.47;;;1.80;;
51438;SDS011;38816;51.142;-0.974;2023-03-01T14:15:15;3.10;;;1.58;;
51438;SDS011;38816;51.142;-0.974;2023-03-01T14:20:26;2.03;;;1.10;;
51438;SDS011;38816;51.142;-0.974;2023-03-01T14:22:55;1.10;;;1.00;;
51438;SDS011;38816;51.142;-0.974;2023-03-01T14:25:25;4.85;;;1.20;;
51438;SDS011;38816;51.142;-0.974;2023-03-01T14:27:57;3.20;;;1.13;;
51438;SDS011;38816;51.142;-0.974;2023-03-01T14:30:36;2.58;;;1.42;;
51438;SDS011;38816;51.142;-0.974;2023-03-01T14:33:04;2.28;;;1.50;;
51438;SDS011;38816;51.142;-0.974;2023-03-01T14:35:32;3.05;;;1.50;;
51438;SDS011;38816;51.142;-0.974;2023-03-01T14:38:00;7.15;;;1.33;;
51438;SDS011;38816;51.142;-0.974;2023-03-01T14:40:27;2.45;;;1.10;;
51438;SDS011;38816;51.142;-0.974;2023-03-01T14:43:01;2.13;;;1.15;;
51438;SDS011;38816;51.142;-0.974;2023-03-01T14:45:33;2.92;;;1.17;;
51438;SDS011;38816;51.142;-0.974;2023-03-01T14:47:59;2.38;;;1.00;;
51438;SDS011;38816;51.142;-0.974;2023-03-01T14:50:28;2.85;;;1.02;;
51438;SDS011;38816;51.142;-0.974;2023-03-01T14:52:57;1.83;;;0.80;;
51438;SDS011;38816;51.142;-0.974;2023-03-01T14:55:46;2.30;;;1.20;;
51438;SDS011;38816;51.142;-0.974;2023-03-01T14:58:17;1.55;;;0.90;;
51438;SDS011;38816;51.142;-0.974;2023-03-01T15:00:55;3.35;;;1.10;;
51438;SDS011;38816;51.142;-0.974;2023-03-01T15:06:00;1.95;;;1.10;;
51438;SDS011;38816;51.142;-0.974;2023-03-01T15:08:27;1.30;;;1.00;;
51438;SDS011;38816;51.142;-0.974;2023-03-01T15:11:03;3.00;;;1.00;;
51438;SDS011;38816;51.142;-0.974;2023-03-01T15:13:29;6.05;;;1.67;;
51438;SDS011;38816;51.142;-0.974;2023-03-01T15:16:12;3.25;;;1.30;;
51438;SDS011;38816;51.142;-0.974;2023-03-01T15:18:43;2.03;;;1.40;;
51438;SDS011;38816;51.142;-0.974;2023-03-01T15:21:18;1.88;;;1.05;;
51438;SDS011;38816;51.142;-0.974;2023-03-01T15:23:48;3.03;;;1.00;;
51438;SDS011;38816;51.142;-0.974;2023-03-01T15:26:22;2.70;;;1.25;;
51438;SDS011;38816;51.142;-0.974;2023-03-01T15:28:57;3.80;;;1.05;;
51438;SDS011;38816;51.142;-0.974;2023-03-01T15:31:25;1.95;;;1.30;;
51438;SDS011;38816;51.142;-0.974;2023-03-01T15:36:47;5.68;;;1.45;;
51438;SDS011;38816;51.142;-0.974;2023-03-01T15:42:08;4.53;;;1.38;;
51438;SDS011;38816;51.142;-0.974;2023-03-01T15:44:36;3.25;;;1.75;;
51438;SDS011;38816;51.142;-0.974;2023-03-01T15:47:29;5.68;;;2.05;;
51438;SDS011;38816;51.142;-0.974;2023-03-01T15:49:56;4.28;;;1.73;;
51438;SDS011;38816;51.142;-0.974;2023-03-01T15:55:04;3.60;;;1.63;;
51438;SDS011;38816;51.142;-0.974;2023-03-01T15:57:32;3.22;;;1.52;;
51438;SDS011;38816;51.142;-0.974;2023-03-01T15:59:57;3.88;;;1.60;;
51438;SDS011;38816;51.142;-0.974;2023-03-01T16:02:23;4.18;;;1.80;;
51438;SDS011;38816;51.142;-0.974;2023-03-01T16:04:49;3.72;;;1.33;;
51438;SDS011;38816;51.142;-0.974;2023-03-01T16:07:15;2.65;;;1.60;;
51438;SDS011;38816;51.142;-0.974;2023-03-01T16:09:40;2.33;;;1.38;;
51438;SDS011;38816;51.142;-0.974;2023-03-01T16:12:09;2.38;;;1.40;;
51438;SDS011;38816;51.142;-0.974;2023-03-01T16:14:38;6.45;;;1.25;;
51438;SDS011;38816;51.142;-0.974;2023-03-01T16:17:03;5.03;;;1.58;;
51438;SDS011;38816;51.142;-0.974;2023-03-01T16:19:29;2.47;;;1.02;;
51438;SDS011;38816;51.142;-0.974;2023-03-01T16:21:54;3.22;;;1.42;;
51438;SDS011;38816;51.142;-0.974;2023-03-01T16:24:20;3.70;;;1.10;;
51438;SDS011;38816;51.142;-0.974;2023-03-01T16:26:45;1.73;;;0.93;;
51438;SDS011;38816;51.142;-0.974;2023-03-01T16:29:10;1.05;;;0.90;;
51438;SDS011;38816;51.142;-0.974;2023-03-01T16:31:36;1.98;;;1.00;;
51438;SDS011;38816;51.142;-0.974;2023-03-01T16:34:01;3.63;;;1.60;;
51438;SDS011;38816;51.142;-0.974;2023-03-01T16:36:27;2.67;;;1.30;;
51438;SDS011;38816;51.142;-0.974;2023-03-01T16:38:56;3.22;;;1.30;;
51438;SDS011;38816;51.142;-0.974;2023-03-01T16:41:25;2.05;;;1.48;;
51438;SDS011;38816;51.142;-0.974;2023-03-01T16:43:51;2.17;;;1.58;;
51438;SDS011;38816;51.142;-0.974;2023-03-01T16:46:18;3.38;;;1.35;;
51438;SDS011;38816;51.142;-0.974;2023-03-01T16:48:46;2.78;;;1.30;;